sensor_id;sensor_type;location;lat;lon;timestamp;P1;durP1;ratioP1;P2;durP2;ratioP2
7729;SDS011;3908;52.310;7.230;2023-07-20T00:00:36;172.97;;;164.93;;
7729;SDS011;3908;52.310;7.230;2023-07-20T00:03:24;138.70;;;131.63;;
7729;SDS011;3908;52.310;7.230;2023-07-20T00:06:11;115.33;;;110.30;;
7729;SDS011;3908;52.310;7.230;2023-07-20T00:08:58;106.90;;;102.17;;
7729;SDS011;3908;52.310;7.230;2023-07-20T00:11:48;87.03;;;82.87;;
7729;SDS011;3908;52.310;7.230;2023-07-20T00:14:36;91.80;;;87.63;;
7729;SDS011;3908;52.310;7.230;2023-07-20T00:17:22;133.87;;;127.70;;
7729;SDS011;3908;52.310;7.230;2023-07-20T00:20:11;218.50;;;208.23;;
7729;SDS011;3908;52.310;7.230;2023-07-20T00:22:58;211.17;;;201.13;;
7729;SDS011;3908;52.310;7.230;2023-07-20T00:25:44;236.30;;;224.93;;
7729;SDS011;3908;52.310;7.230;2023-07-20T00:28:34;186.53;;;177.93;;
7729;SDS011;3908;52.310;7.230;2023-07-20T00:31:21;197.23;;;188.13;;
7729;SDS011;3908;52.310;7.230;2023-07-20T00:34:08;193.70;;;184.53;;
7729;SDS011;3908;52.310;7.230;2023-07-20T00:36:56;213.50;;;203.17;;
7729;SDS011;3908;52.310;7.230;2023-07-20T00:39:42;131.30;;;125.20;;
7729;SDS011;3908;52.310;7.230;2023-07-20T00:42:30;163.93;;;156.43;;
7729;SDS011;3908;52.310;7.230;2023-07-20T00:45:17;117.40;;;111.80;;
7729;SDS011;3908;52.310;7.230;2023-07-20T00:48:04;124.97;;;119.10;;
7729;SDS011;3908;52.310;7.230;2023-07-20T00:50:51;129.60;;;123.10;;
7729;SDS011;3908;52.310;7.230;2023-07-20T00:53:40;90.70;;;86.13;;
7729;SDS011;3908;52.310;7.230;2023-07-20T00:56:26;110.53;;;105.43;;
7729;SDS011;3908;52.310;7.230;2023-07-20T00:59:13;117.20;;;111.80;;
7729;SDS011;3908;52.310;7.230;2023-07-20T01:02:00;128.20;;;121.90;;
7729;SDS011;3908;52.310;7.230;2023-07-20T01:04:47;124.23;;;118.73;;
7729;SDS011;3908;52.310;7.230;2023-07-20T01:07:34;95.73;;;91.47;;
7729;SDS011;3908;52.310;7.230;2023-07-20T01:10:25;111.90;;;106.97;;
7729;SDS011;3908;52.310;7.230;2023-07-20T01:13:14;119.93;;;114.27;;
7729;SDS011;3908;52.310;7.230;2023-07-20T01:16:02;96.03;;;91.57;;
7729;SDS011;3908;52.310;7.230;2023-07-20T01:18:49;92.23;;;87.87;;
7729;SDS011;3908;52.310;7.230;2023-07-20T01:21:37;117.53;;;112.23;;
7729;SDS011;3908;52.310;7.230;2023-07-20T01:27:45;132.97;;;125.93;;
7729;SDS011;3908;52.310;7.230;2023-07-20T01:30:50;160.57;;;152.20;;
7729;SDS011;3908;52.310;7.230;2023-07-20T01:33:41;143.33;;;135.57;;
7729;SDS011;3908;52.310;7.230;2023-07-20T01:36:29;239.13;;;226.23;;
7729;SDS011;3908;52.310;7.230;2023-07-20T01:39:17;225.57;;;213.90;;
7729;SDS011;3908;52.310;7.230;2023-07-20T01:42:05;162.63;;;154.07;;
7729;SDS011;3908;52.310;7.230;2023-07-20T01:44:52;174.23;;;164.80;;
7729;SDS011;3908;52.310;7.230;2023-07-20T01:47:38;146.90;;;139.60;;
7729;SDS011;3908;52.310;7.230;2023-07-20T01:50:27;155.47;;;147.07;;
7729;SDS011;3908;52.310;7.230;2023-07-20T01:53:14;194.60;;;183.83;;
7729;SDS011;3908;52.310;7.230;2023-07-20T01:56:00;194.97;;;184.40;;
7729;SDS011;3908;52.310;7.230;2023-07-20T01:58:47;205.93;;;194.73;;
7729;SDS011;3908;52.310;7.230;2023-07-20T02:01:34;202.70;;;191.50;;
7729;SDS011;3908;52.310;7.230;2023-07-20T02:04:21;242.33;;;228.63;;
7729;SDS011;3908;52.310;7.230;2023-07-20T02:07:09;276.57;;;261.57;;
7729;SDS011;3908;52.310;7.230;2023-07-20T02:09:56;250.97;;;237.60;;
7729;SDS011;3908;52.310;7.230;2023-07-20T02:12:42;245.00;;;232.50;;
7729;SDS011;3908;52.310;7.230;2023-07-20T02:15:29;171.40;;;162.60;;
7729;SDS011;3908;52.310;7.230;2023-07-20T02:18:16;120.07;;;113.97;;
7729;SDS011;3908;52.310;7.230;2023-07-20T02:21:03;78.87;;;74.63;;
7729;SDS011;3908;52.310;7.230;2023-07-20T02:23:51;97.77;;;92.57;;
7729;SDS011;3908;52.310;7.230;2023-07-20T02:26:38;116.13;;;110.53;;
7729;SDS011;3908;52.310;7.230;2023-07-20T02:29:24;96.90;;;91.83;;
7729;SDS011;3908;52.310;7.230;2023-07-20T02:32:11;106.80;;;101.17;;
7729;SDS011;3908;52.310;7.230;2023-07-20T02:34:58;170.03;;;161.53;;
7729;SDS011;3908;52.310;7.230;2023-07-20T02:37:45;200.40;;;190.33;;
7729;SDS011;3908;52.310;7.230;2023-07-20T02:40:33;179.27;;;169.50;;
7729;SDS011;3908;52.310;7.230;2023-07-20T02:43:19;170.83;;;161.43;;
7729;SDS011;3908;52.310;7.230;2023-07-20T02:46:06;142.80;;;135.03;;
7729;SDS011;3908;52.310;7.230;2023-07-20T02:48:53;118.87;;;112.23;;
7729;SDS011;3908;52.310;7.230;2023-07-20T02:51:40;109.77;;;103.77;;
7729;SDS011;3908;52.310;7.230;2023-07-20T02:54:28;93.70;;;88.70;;
7729;SDS011;3908;52.310;7.230;2023-07-20T02:57:16;83.33;;;78.73;;
7729;SDS011;3908;52.310;7.230;2023-07-20T03:00:04;69.30;;;65.50;;
7729;SDS011;3908;52.310;7.230;2023-07-20T03:02:51;69.23;;;65.53;;
7729;SDS011;3908;52.310;7.230;2023-07-20T03:05:41;71.60;;;67.63;;
7729;SDS011;3908;52.310;7.230;2023-07-20T03:08:27;72.40;;;68.40;;
7729;SDS011;3908;52.310;7.230;2023-07-20T03:11:14;83.13;;;78.33;;
7729;SDS011;3908;52.310;7.230;2023-07-20T03:14:02;82.30;;;77.73;;
7729;SDS011;3908;52.310;7.230;2023-07-20T03:16:49;90.47;;;85.67;;
7729;SDS011;3908;52.310;7.230;2023-07-20T03:19:36;82.47;;;78.33;;
7729;SDS011;3908;52.310;7.230;2023-07-20T03:22:23;60.00;;;56.83;;
7729;SDS011;3908;52.310;7.230;2023-07-20T03:25:09;55.50;;;52.27;;
7729;SDS011;3908;52.310;7.230;2023-07-20T03:27:56;50.20;;;47.40;;
7729;SDS011;3908;52.310;7.230;2023-07-20T03:30:44;65.40;;;62.03;;
7729;SDS011;3908;52.310;7.230;2023-07-20T03:33:32;75.40;;;71.13;;
7729;SDS011;3908;52.310;7.230;2023-07-20T03:36:19;26.57;;;24.77;;
7729;SDS011;3908;52.310;7.230;2023-07-20T03:39:06;30.77;;;28.80;;
7729;SDS011;3908;52.310;7.230;2023-07-20T03:41:52;37.13;;;34.90;;
7729;SDS011;3908;52.310;7.230;2023-07-20T03:44:39;61.37;;;58.13;;
7729;SDS011;3908;52.310;7.230;2023-07-20T03:47:27;63.03;;;59.67;;
7729;SDS011;3908;52.310;7.230;2023-07-20T03:50:14;49.87;;;47.33;;
7729;SDS011;3908;52.310;7.230;2023-07-20T03:53:01;57.23;;;54.20;;
7729;SDS011;3908;52.310;7.230;2023-07-20T03:55:48;99.73;;;94.73;;
7729;SDS011;3908;52.310;7.230;2023-07-20T03:58:35;99.07;;;94.20;;
7729;SDS011;3908;52.310;7.230;2023-07-20T04:01:22;65.37;;;62.00;;
7729;SDS011;3908;52.310;7.230;2023-07-20T04:04:10;96.93;;;92.23;;
7729;SDS011;3908;52.310;7.230;2023-07-20T04:06:57;69.03;;;65.47;;
7729;SDS011;3908;52.310;7.230;2023-07-20T04:09:44;59.70;;;56.53;;
7729;SDS011;3908;52.310;7.230;2023-07-20T04:12:30;61.90;;;58.73;;
7729;SDS011;3908;52.310;7.230;2023-07-20T04:15:17;45.50;;;43.00;;
7729;SDS011;3908;52.310;7.230;2023-07-20T04:18:04;33.37;;;31.17;;
7729;SDS011;3908;52.310;7.230;2023-07-20T04:20:52;33.80;;;31.93;;
7729;SDS011;3908;52.310;7.230;2023-07-20T04:23:39;31.77;;;29.90;;
7729;SDS011;3908;52.310;7.230;2023-07-20T04:26:26;36.77;;;34.67;;
7729;SDS011;3908;52.310;7.230;2023-07-20T04:29:13;53.13;;;50.00;;
7729;SDS011;3908;52.310;7.230;2023-07-20T04:31:59;37.30;;;35.13;;
7729;SDS011;3908;52.310;7.230;2023-07-20T04:34:46;48.40;;;46.00;;
7729;SDS011;3908;52.310;7.230;2023-07-20T04:37:34;47.33;;;44.90;;
7729;SDS011;3908;52.310;7.230;2023-07-20T04:40:21;58.43;;;55.53;;
7729;SDS011;3908;52.310;7.230;2023-07-20T04:43:08;71.30;;;67.87;;
7729;SDS011;3908;52.310;7.230;2023-07-20T04:45:55;71.73;;;68.13;;
7729;SDS011;3908;52.310;7.230;2023-07-20T04:48:41;66.27;;;62.90;;
7729;SDS011;3908;52.310;7.230;2023-07-20T04:51:28;67.70;;;64.20;;
7729;SDS011;3908;52.310;7.230;2023-07-20T04:54:17;72.30;;;68.70;;
7729;SDS011;3908;52.310;7.230;2023-07-20T04:57:08;65.07;;;61.70;;
7729;SDS011;3908;52.310;7.230;2023-07-20T04:59:56;70.43;;;66.77;;
7729;SDS011;3908;52.310;7.230;2023-07-20T05:02:42;69.83;;;66.23;;
7729;SDS011;3908;52.310;7.230;2023-07-20T05:05:30;68.87;;;65.17;;
7729;SDS011;3908;52.310;7.230;2023-07-20T05:08:17;55.70;;;52.67;;
7729;SDS011;3908;52.310;7.230;2023-07-20T05:11:05;50.47;;;47.77;;
7729;SDS011;3908;52.310;7.230;2023-07-20T05:13:52;50.50;;;47.83;;
7729;SDS011;3908;52.310;7.230;2023-07-20T05:16:39;58.23;;;54.97;;
7729;SDS011;3908;52.310;7.230;2023-07-20T05:19:26;42.80;;;40.47;;
7729;SDS011;3908;52.310;7.230;2023-07-20T05:22:13;35.03;;;33.03;;
7729;SDS011;3908;52.310;7.230;2023-07-20T05:25:00;28.90;;;27.17;;
7729;SDS011;3908;52.310;7.230;2023-07-20T05:27:48;21.43;;;19.93;;
7729;SDS011;3908;52.310;7.230;2023-07-20T05:30:36;23.33;;;21.87;;
7729;SDS011;3908;52.310;7.230;2023-07-20T05:33:22;39.27;;;36.90;;
7729;SDS011;3908;52.310;7.230;2023-07-20T05:36:09;61.63;;;58.53;;
7729;SDS011;3908;52.310;7.230;2023-07-20T05:38:56;45.40;;;42.97;;
7729;SDS011;3908;52.310;7.230;2023-07-20T05:41:43;78.00;;;73.93;;
7729;SDS011;3908;52.310;7.230;2023-07-20T05:44:31;73.17;;;69.47;;
7729;SDS011;3908;52.310;7.230;2023-07-20T05:47:18;59.60;;;56.60;;
7729;SDS011;3908;52.310;7.230;2023-07-20T05:50:05;92.43;;;87.80;;
7729;SDS011;3908;52.310;7.230;2023-07-20T05:52:52;61.13;;;57.97;;
7729;SDS011;3908;52.310;7.230;2023-07-20T05:55:39;46.17;;;43.63;;
7729;SDS011;3908;52.310;7.230;2023-07-20T05:58:26;100.93;;;96.20;;
7729;SDS011;3908;52.310;7.230;2023-07-20T06:01:14;104.90;;;99.70;;
7729;SDS011;3908;52.310;7.230;2023-07-20T06:04:00;127.80;;;121.87;;
7729;SDS011;3908;52.310;7.230;2023-07-20T06:06:48;111.33;;;106.30;;
7729;SDS011;3908;52.310;7.230;2023-07-20T06:09:35;70.77;;;67.10;;
7729;SDS011;3908;52.310;7.230;2023-07-20T06:12:22;37.70;;;35.53;;
7729;SDS011;3908;52.310;7.230;2023-07-20T06:15:24;79.00;;;74.80;;
7729;SDS011;3908;52.310;7.230;2023-07-20T06:18:13;65.90;;;62.27;;
7729;SDS011;3908;52.310;7.230;2023-07-20T06:20:59;144.60;;;137.43;;
7729;SDS011;3908;52.310;7.230;2023-07-20T06:23:46;80.37;;;76.50;;
7729;SDS011;3908;52.310;7.230;2023-07-20T06:26:33;73.40;;;69.80;;
7729;SDS011;3908;52.310;7.230;2023-07-20T06:29:24;82.63;;;78.13;;
7729;SDS011;3908;52.310;7.230;2023-07-20T06:32:10;53.80;;;51.03;;
7729;SDS011;3908;52.310;7.230;2023-07-20T06:35:00;82.90;;;78.70;;
7729;SDS011;3908;52.310;7.230;2023-07-20T06:37:47;180.50;;;170.20;;
7729;SDS011;3908;52.310;7.230;2023-07-20T06:40:34;179.90;;;170.60;;
7729;SDS011;3908;52.310;7.230;2023-07-20T06:43:20;228.87;;;217.33;;
7729;SDS011;3908;52.310;7.230;2023-07-20T06:46:07;89.22;;;84.75;;
7729;SDS011;3908;52.310;7.230;2023-07-20T06:48:54;137.67;;;130.57;;
7729;SDS011;3908;52.310;7.230;2023-07-20T06:51:43;32.30;;;30.33;;
7729;SDS011;3908;52.310;7.230;2023-07-20T06:54:30;85.97;;;81.70;;
7729;SDS011;3908;52.310;7.230;2023-07-20T06:57:17;76.80;;;73.10;;
7729;SDS011;3908;52.310;7.230;2023-07-20T07:00:04;67.50;;;64.33;;
7729;SDS011;3908;52.310;7.230;2023-07-20T07:02:52;67.80;;;64.63;;
7729;SDS011;3908;52.310;7.230;2023-07-20T07:05:38;101.63;;;95.97;;
7729;SDS011;3908;52.310;7.230;2023-07-20T07:08:27;138.27;;;130.90;;
7729;SDS011;3908;52.310;7.230;2023-07-20T07:11:13;192.93;;;182.93;;
7729;SDS011;3908;52.310;7.230;2023-07-20T07:14:00;116.47;;;110.23;;
7729;SDS011;3908;52.310;7.230;2023-07-20T07:16:47;121.43;;;114.73;;
7729;SDS011;3908;52.310;7.230;2023-07-20T07:19:34;237.43;;;224.70;;
7729;SDS011;3908;52.310;7.230;2023-07-20T07:22:21;306.90;;;289.33;;
7729;SDS011;3908;52.310;7.230;2023-07-20T07:25:10;273.42;;;257.02;;
7729;SDS011;3908;52.310;7.230;2023-07-20T07:27:57;231.80;;;218.93;;
7729;SDS011;3908;52.310;7.230;2023-07-20T07:30:44;241.00;;;228.23;;
7729;SDS011;3908;52.310;7.230;2023-07-20T07:33:31;223.18;;;212.40;;
7729;SDS011;3908;52.310;7.230;2023-07-20T07:36:18;248.18;;;236.68;;
7729;SDS011;3908;52.310;7.230;2023-07-20T07:39:05;271.65;;;258.13;;
7729;SDS011;3908;52.310;7.230;2023-07-20T07:41:53;217.10;;;206.67;;
7729;SDS011;3908;52.310;7.230;2023-07-20T07:44:40;196.87;;;187.27;;
7729;SDS011;3908;52.310;7.230;2023-07-20T07:47:27;197.17;;;187.33;;
7729;SDS011;3908;52.310;7.230;2023-07-20T07:50:14;269.73;;;257.00;;
7729;SDS011;3908;52.310;7.230;2023-07-20T07:53:00;210.10;;;200.15;;
7729;SDS011;3908;52.310;7.230;2023-07-20T07:55:48;189.90;;;180.52;;
7729;SDS011;3908;52.310;7.230;2023-07-20T07:58:36;169.40;;;160.90;;
7729;SDS011;3908;52.310;7.230;2023-07-20T08:01:23;138.32;;;131.23;;
7729;SDS011;3908;52.310;7.230;2023-07-20T08:04:10;179.35;;;169.63;;
7729;SDS011;3908;52.310;7.230;2023-07-20T08:06:58;185.82;;;177.07;;
7729;SDS011;3908;52.310;7.230;2023-07-20T08:09:45;166.68;;;159.13;;
7729;SDS011;3908;52.310;7.230;2023-07-20T08:12:32;187.23;;;178.68;;
7729;SDS011;3908;52.310;7.230;2023-07-20T08:15:20;182.57;;;174.20;;
7729;SDS011;3908;52.310;7.230;2023-07-20T08:18:07;187.45;;;179.07;;
7729;SDS011;3908;52.310;7.230;2023-07-20T08:20:54;221.48;;;210.60;;
7729;SDS011;3908;52.310;7.230;2023-07-20T08:23:40;209.73;;;199.73;;
7729;SDS011;3908;52.310;7.230;2023-07-20T08:26:28;174.10;;;166.25;;
7729;SDS011;3908;52.310;7.230;2023-07-20T08:29:14;186.88;;;178.68;;
7729;SDS011;3908;52.310;7.230;2023-07-20T08:32:03;182.25;;;173.73;;
7729;SDS011;3908;52.310;7.230;2023-07-20T08:34:50;189.02;;;180.48;;
7729;SDS011;3908;52.310;7.230;2023-07-20T08:37:37;215.93;;;205.02;;
7729;SDS011;3908;52.310;7.230;2023-07-20T08:40:24;92.55;;;88.53;;
7729;SDS011;3908;52.310;7.230;2023-07-20T08:43:11;61.15;;;58.45;;
7729;SDS011;3908;52.310;7.230;2023-07-20T08:45:58;23.23;;;22.08;;
7729;SDS011;3908;52.310;7.230;2023-07-20T08:48:46;124.10;;;117.60;;
7729;SDS011;3908;52.310;7.230;2023-07-20T08:51:33;141.40;;;133.88;;
7729;SDS011;3908;52.310;7.230;2023-07-20T08:54:21;155.52;;;147.27;;
7729;SDS011;3908;52.310;7.230;2023-07-20T08:57:08;107.53;;;102.68;;
7729;SDS011;3908;52.310;7.230;2023-07-20T08:59:57;102.15;;;96.70;;
7729;SDS011;3908;52.310;7.230;2023-07-20T09:02:45;93.38;;;89.32;;
7729;SDS011;3908;52.310;7.230;2023-07-20T09:05:33;98.07;;;93.65;;
7729;SDS011;3908;52.310;7.230;2023-07-20T09:08:21;124.38;;;118.68;;
7729;SDS011;3908;52.310;7.230;2023-07-20T09:11:12;113.97;;;108.63;;
7729;SDS011;3908;52.310;7.230;2023-07-20T09:14:03;182.40;;;174.00;;
7729;SDS011;3908;52.310;7.230;2023-07-20T09:16:51;183.68;;;175.38;;
7729;SDS011;3908;52.310;7.230;2023-07-20T09:19:38;152.93;;;146.02;;
7729;SDS011;3908;52.310;7.230;2023-07-20T09:22:30;167.10;;;159.70;;
7729;SDS011;3908;52.310;7.230;2023-07-20T09:25:18;184.00;;;174.77;;
7729;SDS011;3908;52.310;7.230;2023-07-20T09:28:05;87.70;;;83.95;;
7729;SDS011;3908;52.310;7.230;2023-07-20T09:30:52;94.10;;;90.25;;
7729;SDS011;3908;52.310;7.230;2023-07-20T09:33:40;104.97;;;100.78;;
7729;SDS011;3908;52.310;7.230;2023-07-20T09:36:27;112.28;;;107.72;;
7729;SDS011;3908;52.310;7.230;2023-07-20T09:39:15;135.77;;;129.60;;
7729;SDS011;3908;52.310;7.230;2023-07-20T09:42:02;112.40;;;107.57;;
7729;SDS011;3908;52.310;7.230;2023-07-20T09:44:50;75.60;;;71.95;;
7729;SDS011;3908;52.310;7.230;2023-07-20T09:47:37;52.78;;;50.20;;
7729;SDS011;3908;52.310;7.230;2023-07-20T09:50:24;49.55;;;47.25;;
7729;SDS011;3908;52.310;7.230;2023-07-20T09:53:11;50.42;;;47.95;;
7729;SDS011;3908;52.310;7.230;2023-07-20T09:56:00;81.57;;;77.88;;
7729;SDS011;3908;52.310;7.230;2023-07-20T09:58:48;94.90;;;90.82;;
7729;SDS011;3908;52.310;7.230;2023-07-20T10:01:35;77.20;;;73.80;;
7729;SDS011;3908;52.310;7.230;2023-07-20T10:04:23;144.65;;;137.68;;
7729;SDS011;3908;52.310;7.230;2023-07-20T10:07:11;374.33;;;351.60;;
7729;SDS011;3908;52.310;7.230;2023-07-20T10:09:59;349.75;;;329.05;;
7729;SDS011;3908;52.310;7.230;2023-07-20T10:12:48;299.05;;;284.08;;
7729;SDS011;3908;52.310;7.230;2023-07-20T10:15:40;355.95;;;338.80;;
7729;SDS011;3908;52.310;7.230;2023-07-20T10:18:28;324.67;;;308.67;;
7729;SDS011;3908;52.310;7.230;2023-07-20T10:21:16;296.13;;;281.13;;
7729;SDS011;3908;52.310;7.230;2023-07-20T10:24:03;207.90;;;196.75;;
7729;SDS011;3908;52.310;7.230;2023-07-20T10:26:50;270.13;;;255.45;;
7729;SDS011;3908;52.310;7.230;2023-07-20T10:29:38;313.27;;;296.27;;
7729;SDS011;3908;52.310;7.230;2023-07-20T10:32:25;263.15;;;248.35;;
7729;SDS011;3908;52.310;7.230;2023-07-20T10:35:13;123.05;;;117.72;;
7729;SDS011;3908;52.310;7.230;2023-07-20T10:38:00;94.85;;;90.82;;
7729;SDS011;3908;52.310;7.230;2023-07-20T10:40:53;157.20;;;150.45;;
7729;SDS011;3908;52.310;7.230;2023-07-20T10:43:42;225.85;;;214.07;;
7729;SDS011;3908;52.310;7.230;2023-07-20T10:46:41;245.02;;;231.35;;
7729;SDS011;3908;52.310;7.230;2023-07-20T10:49:29;335.48;;;315.33;;
7729;SDS011;3908;52.310;7.230;2023-07-20T10:52:16;360.08;;;339.20;;
7729;SDS011;3908;52.310;7.230;2023-07-20T10:55:09;333.83;;;314.20;;
7729;SDS011;3908;52.310;7.230;2023-07-20T10:58:06;340.02;;;320.50;;
7729;SDS011;3908;52.310;7.230;2023-07-20T11:00:56;296.05;;;279.30;;
7729;SDS011;3908;52.310;7.230;2023-07-20T11:03:49;313.10;;;295.15;;
7729;SDS011;3908;52.310;7.230;2023-07-20T11:06:36;59.13;;;56.13;;
7729;SDS011;3908;52.310;7.230;2023-07-20T11:09:25;75.57;;;71.97;;
7729;SDS011;3908;52.310;7.230;2023-07-20T11:12:13;100.47;;;95.68;;
7729;SDS011;3908;52.310;7.230;2023-07-20T11:15:00;53.03;;;50.42;;
7729;SDS011;3908;52.310;7.230;2023-07-20T11:17:46;49.08;;;46.80;;
7729;SDS011;3908;52.310;7.230;2023-07-20T11:20:35;100.25;;;96.00;;
7729;SDS011;3908;52.310;7.230;2023-07-20T11:23:22;116.43;;;111.75;;
7729;SDS011;3908;52.310;7.230;2023-07-20T11:26:09;132.38;;;126.65;;
7729;SDS011;3908;52.310;7.230;2023-07-20T11:28:58;128.32;;;123.05;;
7729;SDS011;3908;52.310;7.230;2023-07-20T11:31:45;107.45;;;102.50;;
7729;SDS011;3908;52.310;7.230;2023-07-20T11:34:33;117.82;;;113.03;;
7729;SDS011;3908;52.310;7.230;2023-07-20T11:37:21;77.78;;;74.18;;
7729;SDS011;3908;52.310;7.230;2023-07-20T11:40:09;41.90;;;39.63;;
7729;SDS011;3908;52.310;7.230;2023-07-20T11:42:56;197.35;;;188.93;;
7729;SDS011;3908;52.310;7.230;2023-07-20T11:45:42;131.23;;;125.65;;
7729;SDS011;3908;52.310;7.230;2023-07-20T11:48:30;110.15;;;105.22;;
7729;SDS011;3908;52.310;7.230;2023-07-20T11:51:17;138.93;;;132.38;;
7729;SDS011;3908;52.310;7.230;2023-07-20T11:54:05;116.40;;;111.20;;
7729;SDS011;3908;52.310;7.230;2023-07-20T11:56:55;33.43;;;31.93;;
7729;SDS011;3908;52.310;7.230;2023-07-20T11:59:52;32.47;;;30.97;;
7729;SDS011;3908;52.310;7.230;2023-07-20T12:02:40;43.53;;;41.40;;
7729;SDS011;3908;52.310;7.230;2023-07-20T12:05:27;37.80;;;35.93;;
7729;SDS011;3908;52.310;7.230;2023-07-20T12:08:14;45.20;;;43.07;;
7729;SDS011;3908;52.310;7.230;2023-07-20T12:11:03;51.00;;;48.80;;
7729;SDS011;3908;52.310;7.230;2023-07-20T12:13:50;44.43;;;42.53;;
7729;SDS011;3908;52.310;7.230;2023-07-20T12:16:37;39.27;;;37.37;;
7729;SDS011;3908;52.310;7.230;2023-07-20T12:19:25;36.10;;;34.43;;
7729;SDS011;3908;52.310;7.230;2023-07-20T12:22:12;72.37;;;69.17;;
7729;SDS011;3908;52.310;7.230;2023-07-20T12:24:59;96.27;;;91.90;;
7729;SDS011;3908;52.310;7.230;2023-07-20T12:27:48;114.17;;;109.43;;
7729;SDS011;3908;52.310;7.230;2023-07-20T12:30:36;110.03;;;105.57;;
7729;SDS011;3908;52.310;7.230;2023-07-20T12:33:22;101.37;;;97.17;;
7729;SDS011;3908;52.310;7.230;2023-07-20T12:36:09;80.97;;;77.33;;
7729;SDS011;3908;52.310;7.230;2023-07-20T12:38:56;125.10;;;119.00;;
7729;SDS011;3908;52.310;7.230;2023-07-20T12:41:43;200.43;;;191.07;;
7729;SDS011;3908;52.310;7.230;2023-07-20T12:44:31;197.47;;;188.03;;
7729;SDS011;3908;52.310;7.230;2023-07-20T12:47:18;212.73;;;202.43;;
7729;SDS011;3908;52.310;7.230;2023-07-20T12:50:05;137.47;;;130.03;;
7729;SDS011;3908;52.310;7.230;2023-07-20T12:52:52;94.37;;;89.40;;
7729;SDS011;3908;52.310;7.230;2023-07-20T12:55:39;44.53;;;42.13;;
7729;SDS011;3908;52.310;7.230;2023-07-20T12:58:26;50.90;;;48.40;;
7729;SDS011;3908;52.310;7.230;2023-07-20T13:01:14;47.03;;;43.87;;
7729;SDS011;3908;52.310;7.230;2023-07-20T13:04:01;59.00;;;56.37;;
7729;SDS011;3908;52.310;7.230;2023-07-20T13:06:48;131.07;;;125.17;;
7729;SDS011;3908;52.310;7.230;2023-07-20T13:09:35;195.10;;;186.17;;
7729;SDS011;3908;52.310;7.230;2023-07-20T13:12:21;156.25;;;149.20;;
7729;SDS011;3908;52.310;7.230;2023-07-20T13:15:09;81.03;;;77.15;;
7729;SDS011;3908;52.310;7.230;2023-07-20T13:17:57;46.03;;;43.85;;
7729;SDS011;3908;52.310;7.230;2023-07-20T13:20:44;48.92;;;46.50;;
7729;SDS011;3908;52.310;7.230;2023-07-20T13:23:31;68.88;;;65.80;;
7729;SDS011;3908;52.310;7.230;2023-07-20T13:26:17;72.88;;;69.55;;
7729;SDS011;3908;52.310;7.230;2023-07-20T13:29:04;107.28;;;102.63;;
7729;SDS011;3908;52.310;7.230;2023-07-20T13:31:51;92.82;;;89.05;;
7729;SDS011;3908;52.310;7.230;2023-07-20T13:34:40;99.63;;;95.63;;
7729;SDS011;3908;52.310;7.230;2023-07-20T13:37:26;48.78;;;46.65;;
7729;SDS011;3908;52.310;7.230;2023-07-20T13:40:14;128.63;;;123.28;;
7729;SDS011;3908;52.310;7.230;2023-07-20T13:43:04;159.77;;;151.20;;
7729;SDS011;3908;52.310;7.230;2023-07-20T13:45:50;185.77;;;176.07;;
7729;SDS011;3908;52.310;7.230;2023-07-20T13:48:37;181.43;;;173.43;;
7729;SDS011;3908;52.310;7.230;2023-07-20T13:51:26;129.65;;;124.10;;
7729;SDS011;3908;52.310;7.230;2023-07-20T13:54:12;184.20;;;176.23;;
7729;SDS011;3908;52.310;7.230;2023-07-20T13:56:59;192.02;;;183.00;;
7729;SDS011;3908;52.310;7.230;2023-07-20T13:59:46;171.65;;;164.15;;
7729;SDS011;3908;52.310;7.230;2023-07-20T14:02:33;174.93;;;167.27;;
7729;SDS011;3908;52.310;7.230;2023-07-20T14:05:19;124.75;;;118.97;;
7729;SDS011;3908;52.310;7.230;2023-07-20T14:08:08;74.72;;;71.38;;
7729;SDS011;3908;52.310;7.230;2023-07-20T14:10:54;87.28;;;83.38;;
7729;SDS011;3908;52.310;7.230;2023-07-20T14:13:41;81.53;;;77.93;;
7729;SDS011;3908;52.310;7.230;2023-07-20T14:16:28;44.97;;;42.88;;
7729;SDS011;3908;52.310;7.230;2023-07-20T14:19:14;44.83;;;42.78;;
7729;SDS011;3908;52.310;7.230;2023-07-20T14:22:01;42.22;;;40.15;;
7729;SDS011;3908;52.310;7.230;2023-07-20T14:24:50;40.90;;;38.92;;
7729;SDS011;3908;52.310;7.230;2023-07-20T14:27:37;59.53;;;56.92;;
7729;SDS011;3908;52.310;7.230;2023-07-20T14:30:24;58.90;;;56.22;;
7729;SDS011;3908;52.310;7.230;2023-07-20T14:33:10;50.83;;;48.40;;
7729;SDS011;3908;52.310;7.230;2023-07-20T14:35:57;47.10;;;44.90;;
7729;SDS011;3908;52.310;7.230;2023-07-20T14:38:44;78.20;;;74.68;;
7729;SDS011;3908;52.310;7.230;2023-07-20T14:41:33;52.30;;;49.88;;
7729;SDS011;3908;52.310;7.230;2023-07-20T14:44:19;52.35;;;49.90;;
7729;SDS011;3908;52.310;7.230;2023-07-20T14:47:07;64.20;;;61.38;;
7729;SDS011;3908;52.310;7.230;2023-07-20T14:49:54;57.10;;;54.47;;
7729;SDS011;3908;52.310;7.230;2023-07-20T14:52:40;65.60;;;62.35;;
7729;SDS011;3908;52.310;7.230;2023-07-20T14:55:27;97.32;;;93.22;;
7729;SDS011;3908;52.310;7.230;2023-07-20T14:58:15;77.53;;;74.00;;
7729;SDS011;3908;52.310;7.230;2023-07-20T15:01:02;75.72;;;72.47;;
7729;SDS011;3908;52.310;7.230;2023-07-20T15:03:49;76.65;;;73.20;;
7729;SDS011;3908;52.310;7.230;2023-07-20T15:06:38;163.77;;;157.00;;
7729;SDS011;3908;52.310;7.230;2023-07-20T15:09:25;145.10;;;138.95;;
7729;SDS011;3908;52.310;7.230;2023-07-20T15:12:12;171.13;;;163.93;;
7729;SDS011;3908;52.310;7.230;2023-07-20T15:15:04;159.73;;;153.10;;
7729;SDS011;3908;52.310;7.230;2023-07-20T15:17:51;172.90;;;165.82;;
7729;SDS011;3908;52.310;7.230;2023-07-20T15:20:39;153.23;;;146.73;;
7729;SDS011;3908;52.310;7.230;2023-07-20T15:23:27;139.23;;;133.35;;
7729;SDS011;3908;52.310;7.230;2023-07-20T15:26:14;72.38;;;68.97;;
7729;SDS011;3908;52.310;7.230;2023-07-20T15:29:01;51.33;;;48.97;;
7729;SDS011;3908;52.310;7.230;2023-07-20T15:31:49;40.20;;;38.28;;
7729;SDS011;3908;52.310;7.230;2023-07-20T15:34:36;41.60;;;39.67;;
7729;SDS011;3908;52.310;7.230;2023-07-20T15:37:23;53.72;;;51.33;;
7729;SDS011;3908;52.310;7.230;2023-07-20T15:40:10;70.50;;;67.47;;
7729;SDS011;3908;52.310;7.230;2023-07-20T15:42:57;91.55;;;87.68;;
7729;SDS011;3908;52.310;7.230;2023-07-20T15:45:46;173.23;;;165.93;;
7729;SDS011;3908;52.310;7.230;2023-07-20T15:48:34;145.60;;;139.55;;
7729;SDS011;3908;52.310;7.230;2023-07-20T15:51:21;111.15;;;106.40;;
7729;SDS011;3908;52.310;7.230;2023-07-20T15:54:08;147.80;;;141.52;;
7729;SDS011;3908;52.310;7.230;2023-07-20T15:56:55;132.73;;;127.03;;
7729;SDS011;3908;52.310;7.230;2023-07-20T15:59:42;118.18;;;113.05;;
7729;SDS011;3908;52.310;7.230;2023-07-20T16:02:31;113.55;;;108.65;;
7729;SDS011;3908;52.310;7.230;2023-07-20T16:05:19;121.38;;;116.30;;
7729;SDS011;3908;52.310;7.230;2023-07-20T16:08:06;123.90;;;118.53;;
7729;SDS011;3908;52.310;7.230;2023-07-20T16:10:53;183.18;;;175.23;;
7729;SDS011;3908;52.310;7.230;2023-07-20T16:13:40;219.00;;;209.10;;
7729;SDS011;3908;52.310;7.230;2023-07-20T16:16:28;323.75;;;309.08;;
7729;SDS011;3908;52.310;7.230;2023-07-20T16:19:15;275.52;;;262.90;;
7729;SDS011;3908;52.310;7.230;2023-07-20T16:22:03;248.80;;;237.77;;
7729;SDS011;3908;52.310;7.230;2023-07-20T16:24:51;307.73;;;294.17;;
7729;SDS011;3908;52.310;7.230;2023-07-20T16:27:38;312.65;;;299.02;;
7729;SDS011;3908;52.310;7.230;2023-07-20T16:30:27;323.52;;;309.42;;
7729;SDS011;3908;52.310;7.230;2023-07-20T16:33:14;317.77;;;303.90;;
7729;SDS011;3908;52.310;7.230;2023-07-20T16:36:01;296.70;;;283.90;;